MST,Max TemperatureF,Mean TemperatureF,Min TemperatureF,Max Dew PointF,MeanDew PointF,Min DewpointF,Max Humidity, Mean Humidity, Min Humidity, Max Sea Level PressureIn, Mean Sea Level PressureIn, Min Sea Level PressureIn, Max VisibilityMiles, Mean VisibilityMiles, Min VisibilityMiles, Max Wind SpeedMPH, Mean Wind SpeedMPH, Max Gust SpeedMPH,PrecipitationIn, CloudCover, Events, WindDirDegrees
2012-11-1,78,64,51,25,22,18,30,21,11,30.16,30.10,30.05,10,10,10,16,9,21,0.00,0,,99
2012-11-2,77,66,55,30,28,25,38,27,18,30.12,30.08,30.04,10,10,10,14,7,24,0.00,0,,73
2012-11-3,73,62,51,32,30,28,41,29,19,30.23,30.17,30.11,10,10,10,16,10,20,0.00,0,,52
2012-11-4,78,66,53,30,24,18,36,22,12,30.30,30.26,30.23,10,10,10,17,12,22,0.00,0,,64
2012-11-5,80,70,60,28,25,18,27,20,14,30.32,30.27,30.22,10,10,10,16,9,22,0.00,0,,74
2012-11-6,82,71,60,30,27,23,29,22,13,30.30,30.24,30.19,10,10,10,16,9,21,0.00,0,,77
2012-11-7,80,68,57,30,27,21,31,23,14,30.23,30.15,30.07,10,10,10,15,9,17,0.00,0,,103
2012-11-8,73,62,50,50,34,27,100,45,19,30.08,30.02,29.96,10,10,1,17,5,31,0.28,3,Rain,164
2012-11-9,59,50,42,50,44,34,94,72,58,29.96,29.84,29.76,10,10,4,26,12,37,0.14,8,Rain-Thunderstorm,200
2012-11-10,48,40,33,36,24,12,81,55,27,30.04,29.90,29.78,10,10,2,18,8,28,0.00,4,Snow,256
2012-11-11,50,41,32,28,20,12,81,49,27,30.37,30.22,30.05,10,10,10,14,2,20,0.00,0,,80
2012-11-12,60,48,37,10,8,5,33,21,13,30.37,30.30,30.23,10,10,10,22,11,30,0.00,0,,64
2012-11-13,68,55,42,16,11,5,27,19,12,30.30,30.25,30.19,10,10,10,18,13,23,0.00,0,,71
2012-11-14,68,57,46,21,16,5,32,22,15,30.26,30.22,30.16,10,10,10,18,11,23,0.00,0,,59
2012-11-15,62,55,48,28,21,14,33,26,22,30.26,30.21,30.18,10,10,10,17,9,22,0.00,1,,52
2012-11-16,71,62,53,28,25,21,38,27,15,30.22,30.18,30.13,10,10,10,16,8,20,0.00,4,,117
2012-11-17,69,60,50,36,30,23,47,36,28,30.21,30.16,30.11,10,10,10,21,7,24,0.00,4,,169
2012-11-18,68,57,46,41,37,36,71,51,33,30.24,30.18,30.14,10,10,10,12,5,18,0.00,2,,174
2012-11-19,68,56,44,37,31,23,71,44,21,30.34,30.28,30.24,10,10,10,16,8,16,0.00,0,,58
2012-11-20,69,58,48,30,28,25,43,32,20,30.30,30.23,30.17,10,10,10,15,9,20,0.00,0,,63
2012-11-21,71,60,50,34,32,28,50,37,23,30.21,30.15,30.10,10,10,10,15,9,20,0.00,0,,81
2012-11-22,71,60,50,32,28,18,50,34,14,30.30,30.21,30.14,10,10,10,17,9,25,0.00,0,,58
2012-11-23,77,66,55,27,24,19,31,24,13,30.38,30.32,30.28,10,10,10,20,13,26,0.00,0,,68
2012-11-24,71,60,50,28,26,23,35,27,19,30.32,30.23,30.12,10,10,10,17,10,23,0.00,0,,57
2012-11-25,71,60,50,30,28,25,41,32,20,30.11,30.06,29.98,10,10,10,15,8,,0.00,0,,56
2012-11-26,69,58,48,28,25,21,46,31,17,30.25,30.14,30.05,10,10,10,13,8,21,0.00,0,,52
2012-11-27,69,60,50,28,25,19,35,28,20,30.34,30.27,30.23,10,10,10,16,9,18,0.00,0,,77
2012-11-28,71,61,51,32,30,27,44,34,22,30.30,30.24,30.17,10,10,10,15,9,18,0.00,0,,108
2012-11-29,68,58,48,34,32,30,54,41,24,30.28,30.23,30.18,10,10,10,9,5,,0.00,0,,115
2012-11-30,62,54,46,41,38,34,66,54,42,30.25,30.20,30.16,10,10,10,10,4,,0.00,1,,101